sensor_id;sensor_type;location;lat;lon;timestamp;pressure;altitude;pressure_sealevel;temperature;humidity
75536;BME280;64119;52.070;20.804;2023-04-24T00:00:46;99493.22;;;9.74;65.82
75536;BME280;64119;52.070;20.804;2023-04-24T00:03:25;99492.25;;;9.65;67.29
75536;BME280;64119;52.070;20.804;2023-04-24T00:05:56;99492.54;;;9.61;67.70
75536;BME280;64119;52.070;20.804;2023-04-24T00:08:23;99489.91;;;9.57;67.07
75536;BME280;64119;52.070;20.804;2023-04-24T00:10:51;99485.19;;;9.54;65.91
75536;BME280;64119;52.070;20.804;2023-04-24T00:13:20;99482.21;;;9.49;66.49
75536;BME280;64119;52.070;20.804;2023-04-24T00:15:48;99480.24;;;9.41;67.95
75536;BME280;64119;52.070;20.804;2023-04-24T00:18:16;99480.62;;;9.32;69.06
75536;BME280;64119;52.070;20.804;2023-04-24T00:20:44;99488.74;;;9.31;65.22
75536;BME280;64119;52.070;20.804;2023-04-24T00:23:12;99493.23;;;9.30;65.22
75536;BME280;64119;52.070;20.804;2023-04-24T00:25:40;99496.27;;;9.22;67.13
75536;BME280;64119;52.070;20.804;2023-04-24T00:28:08;99496.82;;;9.15;67.65
75536;BME280;64119;52.070;20.804;2023-04-24T00:30:36;99498.07;;;9.11;68.80
75536;BME280;64119;52.070;20.804;2023-04-24T00:33:03;99492.96;;;9.03;67.70
75536;BME280;64119;52.070;20.804;2023-04-24T00:35:31;99489.21;;;8.99;69.70
75536;BME280;64119;52.070;20.804;2023-04-24T00:37:59;99491.76;;;8.92;68.31
75536;BME280;64119;52.070;20.804;2023-04-24T00:40:28;99492.02;;;8.89;68.44
75536;BME280;64119;52.070;20.804;2023-04-24T00:42:56;99490.06;;;8.86;69.05
75536;BME280;64119;52.070;20.804;2023-04-24T00:45:24;99493.55;;;8.85;67.88
75536;BME280;64119;52.070;20.804;2023-04-24T00:47:53;99489.93;;;8.83;69.56
75536;BME280;64119;52.070;20.804;2023-04-24T00:50:21;99490.89;;;8.82;71.39
75536;BME280;64119;52.070;20.804;2023-04-24T00:52:50;99487.20;;;8.81;70.80
75536;BME280;64119;52.070;20.804;2023-04-24T00:55:18;99491.10;;;8.81;70.01
75536;BME280;64119;52.070;20.804;2023-04-24T00:57:46;99483.85;;;8.83;72.19
75536;BME280;64119;52.070;20.804;2023-04-24T01:00:16;99482.33;;;8.83;70.24
75536;BME280;64119;52.070;20.804;2023-04-24T01:02:45;99479.81;;;8.87;68.25
75536;BME280;64119;52.070;20.804;2023-04-24T01:05:14;99482.20;;;8.92;72.98
75536;BME280;64119;52.070;20.804;2023-04-24T01:07:45;99478.92;;;9.00;70.59
75536;BME280;64119;52.070;20.804;2023-04-24T01:10:14;99481.79;;;9.05;70.08
75536;BME280;64119;52.070;20.804;2023-04-24T01:12:42;99480.23;;;9.07;68.24
75536;BME280;64119;52.070;20.804;2023-04-24T01:15:12;99482.31;;;9.09;69.77
75536;BME280;64119;52.070;20.804;2023-04-24T01:17:41;99483.98;;;9.08;69.49
75536;BME280;64119;52.070;20.804;2023-04-24T01:20:09;99479.70;;;9.08;68.00
75536;BME280;64119;52.070;20.804;2023-04-24T01:22:38;99482.52;;;9.09;69.80
75536;BME280;64119;52.070;20.804;2023-04-24T01:25:06;99475.11;;;9.07;70.84
75536;BME280;64119;52.070;20.804;2023-04-24T01:27:34;99472.86;;;9.06;68.94
75536;BME280;64119;52.070;20.804;2023-04-24T01:30:02;99468.48;;;9.05;69.48
75536;BME280;64119;52.070;20.804;2023-04-24T01:32:31;99468.14;;;9.04;72.55
75536;BME280;64119;52.070;20.804;2023-04-24T01:34:59;99467.88;;;8.99;71.03
75536;BME280;64119;52.070;20.804;2023-04-24T01:37:27;99465.06;;;8.94;70.17
75536;BME280;64119;52.070;20.804;2023-04-24T01:39:54;99457.36;;;8.92;71.96
75536;BME280;64119;52.070;20.804;2023-04-24T01:42:23;99455.86;;;8.93;71.43
75536;BME280;64119;52.070;20.804;2023-04-24T01:44:51;99452.98;;;8.92;69.78
75536;BME280;64119;52.070;20.804;2023-04-24T01:47:19;99450.23;;;8.87;71.23
75536;BME280;64119;52.070;20.804;2023-04-24T01:49:48;99451.08;;;8.85;71.55
75536;BME280;64119;52.070;20.804;2023-04-24T01:52:16;99448.67;;;8.82;71.07
75536;BME280;64119;52.070;20.804;2023-04-24T01:54:45;99446.18;;;8.76;71.78
75536;BME280;64119;52.070;20.804;2023-04-24T01:57:14;99440.66;;;8.70;71.58
75536;BME280;64119;52.070;20.804;2023-04-24T01:59:42;99441.26;;;8.66;72.62
75536;BME280;64119;52.070;20.804;2023-04-24T02:02:10;99444.45;;;8.62;71.36
75536;BME280;64119;52.070;20.804;2023-04-24T02:04:39;99442.73;;;8.60;72.07
75536;BME280;64119;52.070;20.804;2023-04-24T02:07:07;99436.55;;;8.56;70.61
75536;BME280;64119;52.070;20.804;2023-04-24T02:09:35;99440.86;;;8.56;69.63
75536;BME280;64119;52.070;20.804;2023-04-24T02:12:03;99440.84;;;8.52;71.85
75536;BME280;64119;52.070;20.804;2023-04-24T02:14:31;99436.08;;;8.45;70.98
75536;BME280;64119;52.070;20.804;2023-04-24T02:16:59;99435.55;;;8.41;72.20
75536;BME280;64119;52.070;20.804;2023-04-24T02:19:26;99432.09;;;8.39;72.29
75536;BME280;64119;52.070;20.804;2023-04-24T02:21:54;99432.80;;;8.35;72.62
75536;BME280;64119;52.070;20.804;2023-04-24T02:24:22;99429.86;;;8.33;71.78
75536;BME280;64119;52.070;20.804;2023-04-24T02:26:50;99428.08;;;8.26;73.77
75536;BME280;64119;52.070;20.804;2023-04-24T02:29:18;99430.75;;;8.23;72.32
75536;BME280;64119;52.070;20.804;2023-04-24T02:31:46;99426.02;;;8.19;73.03
75536;BME280;64119;52.070;20.804;2023-04-24T02:34:14;99422.39;;;8.17;71.70
75536;BME280;64119;52.070;20.804;2023-04-24T02:36:42;99423.41;;;8.16;71.38
75536;BME280;64119;52.070;20.804;2023-04-24T02:39:10;99425.38;;;8.12;72.58
75536;BME280;64119;52.070;20.804;2023-04-24T02:41:38;99422.70;;;8.08;73.89
75536;BME280;64119;52.070;20.804;2023-04-24T02:44:06;99421.96;;;8.04;74.05
75536;BME280;64119;52.070;20.804;2023-04-24T02:46:34;99421.63;;;8.02;73.75
75536;BME280;64119;52.070;20.804;2023-04-24T02:49:02;99417.67;;;7.99;74.64
75536;BME280;64119;52.070;20.804;2023-04-24T02:51:30;99416.86;;;7.93;74.64
75536;BME280;64119;52.070;20.804;2023-04-24T02:53:58;99415.95;;;7.89;75.32
75536;BME280;64119;52.070;20.804;2023-04-24T02:56:26;99414.26;;;7.84;75.26
75536;BME280;64119;52.070;20.804;2023-04-24T02:58:55;99414.67;;;7.81;75.02
75536;BME280;64119;52.070;20.804;2023-04-24T03:01:23;99419.86;;;7.79;74.74
75536;BME280;64119;52.070;20.804;2023-04-24T03:03:50;99414.26;;;7.79;75.15
75536;BME280;64119;52.070;20.804;2023-04-24T03:06:18;99416.15;;;7.76;76.13
75536;BME280;64119;52.070;20.804;2023-04-24T03:08:47;99414.80;;;7.75;75.95
75536;BME280;64119;52.070;20.804;2023-04-24T03:11:15;99420.30;;;7.73;75.52
75536;BME280;64119;52.070;20.804;2023-04-24T03:13:42;99419.56;;;7.72;75.58
75536;BME280;64119;52.070;20.804;2023-04-24T03:16:10;99418.06;;;7.71;73.52
75536;BME280;64119;52.070;20.804;2023-04-24T03:18:38;99418.12;;;7.70;74.95
75536;BME280;64119;52.070;20.804;2023-04-24T03:21:06;99420.10;;;7.72;73.07
75536;BME280;64119;52.070;20.804;2023-04-24T03:23:34;99419.82;;;7.73;75.74
75536;BME280;64119;52.070;20.804;2023-04-24T03:26:02;99422.95;;;7.73;75.38
75536;BME280;64119;52.070;20.804;2023-04-24T03:28:30;99425.60;;;7.74;75.23
75536;BME280;64119;52.070;20.804;2023-04-24T03:31:00;99421.20;;;7.75;75.79
75536;BME280;64119;52.070;20.804;2023-04-24T03:33:31;99422.33;;;7.78;76.06
75536;BME280;64119;52.070;20.804;2023-04-24T03:36:01;99422.51;;;7.79;73.55
75536;BME280;64119;52.070;20.804;2023-04-24T03:38:36;99419.48;;;7.83;73.82
75536;BME280;64119;52.070;20.804;2023-04-24T03:41:18;99424.19;;;7.89;75.51
75536;BME280;64119;52.070;20.804;2023-04-24T03:43:50;99422.27;;;7.96;74.40
75536;BME280;64119;52.070;20.804;2023-04-24T03:46:18;99422.73;;;8.05;73.63
75536;BME280;64119;52.070;20.804;2023-04-24T03:48:51;99427.36;;;8.13;73.26
75536;BME280;64119;52.070;20.804;2023-04-24T03:51:21;99423.69;;;8.24;74.62
75536;BME280;64119;52.070;20.804;2023-04-24T03:53:50;99428.63;;;8.37;75.69
75536;BME280;64119;52.070;20.804;2023-04-24T03:56:20;99423.06;;;8.49;76.62
75536;BME280;64119;52.070;20.804;2023-04-24T03:58:48;99423.95;;;8.62;75.21
75536;BME280;64119;52.070;20.804;2023-04-24T04:01:16;99425.67;;;8.76;74.45
75536;BME280;64119;52.070;20.804;2023-04-24T04:03:52;99429.41;;;8.93;74.20
75536;BME280;64119;52.070;20.804;2023-04-24T04:06:22;99433.07;;;9.12;73.71
75536;BME280;64119;52.070;20.804;2023-04-24T04:08:51;99430.55;;;9.28;72.58
75536;BME280;64119;52.070;20.804;2023-04-24T04:11:19;99427.27;;;9.44;72.60
75536;BME280;64119;52.070;20.804;2023-04-24T04:13:47;99430.00;;;9.59;72.01
75536;BME280;64119;52.070;20.804;2023-04-24T04:16:17;99429.78;;;9.73;72.09
75536;BME280;64119;52.070;20.804;2023-04-24T04:18:45;99425.20;;;9.86;72.49
75536;BME280;64119;52.070;20.804;2023-04-24T04:21:13;99427.21;;;9.97;71.68
75536;BME280;64119;52.070;20.804;2023-04-24T04:23:41;99421.56;;;10.07;72.38
75536;BME280;64119;52.070;20.804;2023-04-24T04:26:14;99422.42;;;10.18;72.03
75536;BME280;64119;52.070;20.804;2023-04-24T04:28:52;99422.86;;;10.28;71.85
75536;BME280;64119;52.070;20.804;2023-04-24T04:31:20;99421.42;;;10.37;71.08
75536;BME280;64119;52.070;20.804;2023-04-24T04:33:49;99423.80;;;10.45;71.19
75536;BME280;64119;52.070;20.804;2023-04-24T04:36:17;99417.44;;;10.54;70.86
75536;BME280;64119;52.070;20.804;2023-04-24T04:38:46;99417.72;;;10.64;70.50
75536;BME280;64119;52.070;20.804;2023-04-24T04:41:40;99414.92;;;10.76;70.43
75536;BME280;64119;52.070;20.804;2023-04-24T04:44:10;99412.00;;;10.86;70.23
75536;BME280;64119;52.070;20.804;2023-04-24T04:46:38;99413.86;;;10.96;70.28
75536;BME280;64119;52.070;20.804;2023-04-24T04:49:13;99406.80;;;11.04;70.25
75536;BME280;64119;52.070;20.804;2023-04-24T04:51:45;99408.20;;;11.12;70.02
75536;BME280;64119;52.070;20.804;2023-04-24T04:54:13;99408.42;;;11.20;69.25
75536;BME280;64119;52.070;20.804;2023-04-24T04:56:41;99413.15;;;11.27;68.96
75536;BME280;64119;52.070;20.804;2023-04-24T04:59:09;99412.89;;;11.35;68.84
75536;BME280;64119;52.070;20.804;2023-04-24T05:01:40;99412.98;;;11.44;68.81
75536;BME280;64119;52.070;20.804;2023-04-24T05:04:09;99406.98;;;11.53;69.04
75536;BME280;64119;52.070;20.804;2023-04-24T05:06:38;99406.22;;;11.62;68.57
75536;BME280;64119;52.070;20.804;2023-04-24T05:09:06;99404.09;;;11.69;68.47
75536;BME280;64119;52.070;20.804;2023-04-24T05:11:51;99399.77;;;11.80;68.23
75536;BME280;64119;52.070;20.804;2023-04-24T05:14:18;99399.92;;;11.91;67.98
75536;BME280;64119;52.070;20.804;2023-04-24T05:16:46;99397.06;;;12.02;67.80
75536;BME280;64119;52.070;20.804;2023-04-24T05:19:14;99401.63;;;12.14;67.32
75536;BME280;64119;52.070;20.804;2023-04-24T05:21:42;99407.19;;;12.26;66.95
75536;BME280;64119;52.070;20.804;2023-04-24T05:24:10;99407.89;;;12.38;66.55
75536;BME280;64119;52.070;20.804;2023-04-24T05:26:57;99413.68;;;12.54;66.37
75536;BME280;64119;52.070;20.804;2023-04-24T05:29:31;99407.00;;;12.71;66.60
75536;BME280;64119;52.070;20.804;2023-04-24T05:32:00;99403.86;;;12.86;65.97
75536;BME280;64119;52.070;20.804;2023-04-24T05:34:29;99402.39;;;13.01;65.18
75536;BME280;64119;52.070;20.804;2023-04-24T05:36:57;99396.11;;;13.14;64.76
75536;BME280;64119;52.070;20.804;2023-04-24T05:39:26;99394.54;;;13.28;64.41
75536;BME280;64119;52.070;20.804;2023-04-24T05:41:54;99394.87;;;13.38;63.90
75536;BME280;64119;52.070;20.804;2023-04-24T05:44:25;99393.23;;;13.49;63.73
75536;BME280;64119;52.070;20.804;2023-04-24T05:46:53;99395.49;;;13.64;63.88
75536;BME280;64119;52.070;20.804;2023-04-24T05:49:23;99392.36;;;13.84;63.80
75536;BME280;64119;52.070;20.804;2023-04-24T05:51:51;99390.31;;;14.02;63.33
75536;BME280;64119;52.070;20.804;2023-04-24T05:54:19;99391.42;;;14.16;63.47
75536;BME280;64119;52.070;20.804;2023-04-24T05:56:47;99389.42;;;14.26;63.06
75536;BME280;64119;52.070;20.804;2023-04-24T05:59:19;99392.75;;;14.37;62.53
75536;BME280;64119;52.070;20.804;2023-04-24T06:01:47;99389.02;;;14.51;62.10
75536;BME280;64119;52.070;20.804;2023-04-24T06:04:18;99389.60;;;14.65;62.23
75536;BME280;64119;52.070;20.804;2023-04-24T06:06:46;99386.83;;;14.77;61.36
75536;BME280;64119;52.070;20.804;2023-04-24T06:09:18;99390.28;;;14.89;60.82
75536;BME280;64119;52.070;20.804;2023-04-24T06:11:46;99386.81;;;14.96;59.94
75536;BME280;64119;52.070;20.804;2023-04-24T06:14:14;99383.50;;;15.02;59.68
75536;BME280;64119;52.070;20.804;2023-04-24T06:17:02;99383.45;;;15.17;59.66
75536;BME280;64119;52.070;20.804;2023-04-24T06:19:35;99376.78;;;15.30;59.06
75536;BME280;64119;52.070;20.804;2023-04-24T06:22:03;99373.20;;;15.41;58.34
75536;BME280;64119;52.070;20.804;2023-04-24T06:24:31;99371.92;;;15.53;58.30
75536;BME280;64119;52.070;20.804;2023-04-24T06:26:59;99373.00;;;15.64;57.53
75536;BME280;64119;52.070;20.804;2023-04-24T06:29:28;99371.86;;;15.70;56.83
75536;BME280;64119;52.070;20.804;2023-04-24T06:31:55;99371.15;;;15.80;56.40
75536;BME280;64119;52.070;20.804;2023-04-24T06:34:23;99366.71;;;15.92;56.51
75536;BME280;64119;52.070;20.804;2023-04-24T06:36:51;99371.67;;;16.06;55.71
75536;BME280;64119;52.070;20.804;2023-04-24T06:39:19;99369.38;;;16.16;55.83
75536;BME280;64119;52.070;20.804;2023-04-24T06:41:47;99367.52;;;16.29;56.17
75536;BME280;64119;52.070;20.804;2023-04-24T06:44:19;99368.45;;;16.44;55.70
75536;BME280;64119;52.070;20.804;2023-04-24T06:46:47;99366.92;;;16.59;55.99
75536;BME280;64119;52.070;20.804;2023-04-24T06:49:15;99366.48;;;16.78;55.78
75536;BME280;64119;52.070;20.804;2023-04-24T06:51:43;99370.42;;;16.91;54.88
75536;BME280;64119;52.070;20.804;2023-04-24T06:54:11;99372.02;;;16.96;54.51
75536;BME280;64119;52.070;20.804;2023-04-24T06:56:39;99369.83;;;17.02;54.12
75536;BME280;64119;52.070;20.804;2023-04-24T06:59:07;99371.50;;;17.13;54.31
75536;BME280;64119;52.070;20.804;2023-04-24T07:01:35;99379.67;;;17.24;53.90
75536;BME280;64119;52.070;20.804;2023-04-24T07:04:02;99372.91;;;17.36;54.47
75536;BME280;64119;52.070;20.804;2023-04-24T07:06:30;99379.30;;;17.50;54.01
75536;BME280;64119;52.070;20.804;2023-04-24T07:08:59;99380.66;;;17.57;53.96
75536;BME280;64119;52.070;20.804;2023-04-24T07:11:27;99378.98;;;17.60;54.05
75536;BME280;64119;52.070;20.804;2023-04-24T07:13:57;99376.34;;;17.53;53.94
75536;BME280;64119;52.070;20.804;2023-04-24T07:16:24;99381.57;;;17.51;54.20
75536;BME280;64119;52.070;20.804;2023-04-24T07:18:53;99379.89;;;17.50;54.17
75536;BME280;64119;52.070;20.804;2023-04-24T07:21:21;99379.59;;;17.56;53.64
75536;BME280;64119;52.070;20.804;2023-04-24T07:23:48;99378.44;;;17.62;53.15
75536;BME280;64119;52.070;20.804;2023-04-24T07:26:17;99373.73;;;17.69;53.17
75536;BME280;64119;52.070;20.804;2023-04-24T07:28:44;99375.37;;;17.74;53.33
75536;BME280;64119;52.070;20.804;2023-04-24T07:31:12;99372.89;;;17.80;53.39
75536;BME280;64119;52.070;20.804;2023-04-24T07:33:42;99373.21;;;17.93;53.61
75536;BME280;64119;52.070;20.804;2023-04-24T07:36:10;99372.76;;;18.06;52.75
75536;BME280;64119;52.070;20.804;2023-04-24T07:38:43;99369.48;;;18.18;52.94
75536;BME280;64119;52.070;20.804;2023-04-24T07:41:11;99370.67;;;18.30;52.99
75536;BME280;64119;52.070;20.804;2023-04-24T07:43:39;99370.62;;;18.43;53.19
75536;BME280;64119;52.070;20.804;2023-04-24T07:46:07;99361.89;;;18.66;52.95
75536;BME280;64119;52.070;20.804;2023-04-24T07:48:36;99361.52;;;18.91;52.47
75536;BME280;64119;52.070;20.804;2023-04-24T07:51:04;99358.19;;;19.02;51.59
75536;BME280;64119;52.070;20.804;2023-04-24T07:53:32;99360.40;;;19.05;51.87
75536;BME280;64119;52.070;20.804;2023-04-24T07:56:00;99359.19;;;19.14;51.70
75536;BME280;64119;52.070;20.804;2023-04-24T07:58:27;99356.88;;;19.35;51.68
75536;BME280;64119;52.070;20.804;2023-04-24T08:00:55;99356.18;;;19.54;50.07
75536;BME280;64119;52.070;20.804;2023-04-24T08:03:23;99352.64;;;19.47;50.53
75536;BME280;64119;52.070;20.804;2023-04-24T08:05:52;99354.95;;;19.45;50.91
75536;BME280;64119;52.070;20.804;2023-04-24T08:08:21;99353.29;;;19.41;50.35
75536;BME280;64119;52.070;20.804;2023-04-24T08:10:50;99351.46;;;19.47;50.50
75536;BME280;64119;52.070;20.804;2023-04-24T08:13:18;99352.63;;;19.63;51.15
75536;BME280;64119;52.070;20.804;2023-04-24T08:15:45;99350.72;;;19.76;49.62
75536;BME280;64119;52.070;20.804;2023-04-24T08:18:14;99352.70;;;19.75;49.54
75536;BME280;64119;52.070;20.804;2023-04-24T08:20:43;99355.06;;;19.80;48.85
75536;BME280;64119;52.070;20.804;2023-04-24T08:23:11;99349.95;;;19.98;49.89
75536;BME280;64119;52.070;20.804;2023-04-24T08:25:39;99348.16;;;20.23;49.08
75536;BME280;64119;52.070;20.804;2023-04-24T08:28:08;99353.42;;;20.42;48.17
75536;BME280;64119;52.070;20.804;2023-04-24T08:30:37;99349.17;;;20.53;47.99
75536;BME280;64119;52.070;20.804;2023-04-24T08:33:05;99352.69;;;20.79;47.62
75536;BME280;64119;52.070;20.804;2023-04-24T08:35:34;99347.84;;;21.01;46.78
75536;BME280;64119;52.070;20.804;2023-04-24T08:38:02;99347.79;;;21.11;47.15
75536;BME280;64119;52.070;20.804;2023-04-24T08:40:33;99346.02;;;21.31;46.07
75536;BME280;64119;52.070;20.804;2023-04-24T08:43:04;99344.94;;;21.31;45.84
75536;BME280;64119;52.070;20.804;2023-04-24T08:45:32;99349.46;;;21.55;46.38
75536;BME280;64119;52.070;20.804;2023-04-24T08:48:02;99342.64;;;21.52;45.72
75536;BME280;64119;52.070;20.804;2023-04-24T08:50:31;99347.45;;;21.40;45.81
75536;BME280;64119;52.070;20.804;2023-04-24T08:53:00;99342.85;;;21.17;45.55
75536;BME280;64119;52.070;20.804;2023-04-24T08:55:32;99342.69;;;20.97;45.92
75536;BME280;64119;52.070;20.804;2023-04-24T08:58:01;99342.98;;;20.88;46.76
75536;BME280;64119;52.070;20.804;2023-04-24T09:00:30;99340.60;;;20.89;47.06
75536;BME280;64119;52.070;20.804;2023-04-24T09:03:00;99340.55;;;20.95;46.54
75536;BME280;64119;52.070;20.804;2023-04-24T09:05:29;99340.90;;;21.09;45.83
75536;BME280;64119;52.070;20.804;2023-04-24T09:07:59;99339.61;;;21.29;45.43
75536;BME280;64119;52.070;20.804;2023-04-24T09:10:29;99338.14;;;21.37;45.46
75536;BME280;64119;52.070;20.804;2023-04-24T09:12:58;99338.77;;;21.32;45.09
75536;BME280;64119;52.070;20.804;2023-04-24T09:15:29;99337.02;;;21.34;45.24
75536;BME280;64119;52.070;20.804;2023-04-24T09:17:57;99334.95;;;21.37;45.31
75536;BME280;64119;52.070;20.804;2023-04-24T09:20:25;99331.67;;;21.52;44.98
75536;BME280;64119;52.070;20.804;2023-04-24T09:22:59;99328.87;;;21.63;44.61
75536;BME280;64119;52.070;20.804;2023-04-24T09:25:34;99332.92;;;21.67;44.03
75536;BME280;64119;52.070;20.804;2023-04-24T09:28:04;99332.06;;;21.74;43.92
75536;BME280;64119;52.070;20.804;2023-04-24T09:30:33;99332.20;;;22.07;43.90
75536;BME280;64119;52.070;20.804;2023-04-24T09:33:14;99329.52;;;22.39;43.78
75536;BME280;64119;52.070;20.804;2023-04-24T09:35:52;99323.90;;;23.07;41.46
75536;BME280;64119;52.070;20.804;2023-04-24T09:38:30;99321.66;;;23.75;40.57
75536;BME280;64119;52.070;20.804;2023-04-24T09:41:04;99318.51;;;24.21;38.90
75536;BME280;64119;52.070;20.804;2023-04-24T09:43:33;99316.84;;;24.41;38.16
75536;BME280;64119;52.070;20.804;2023-04-24T09:46:06;99316.02;;;24.85;38.40
75536;BME280;64119;52.070;20.804;2023-04-24T09:48:37;99313.83;;;25.14;37.77
75536;BME280;64119;52.070;20.804;2023-04-24T09:51:06;99314.86;;;25.31;37.46
75536;BME280;64119;52.070;20.804;2023-04-24T09:53:46;99313.67;;;25.71;36.12
75536;BME280;64119;52.070;20.804;2023-04-24T09:56:15;99309.48;;;25.71;34.72
75536;BME280;64119;52.070;20.804;2023-04-24T09:58:43;99306.15;;;25.83;35.46
75536;BME280;64119;52.070;20.804;2023-04-24T10:01:11;99305.31;;;26.03;34.26
75536;BME280;64119;52.070;20.804;2023-04-24T10:03:42;99299.49;;;26.15;33.89
75536;BME280;64119;52.070;20.804;2023-04-24T10:06:11;99298.09;;;25.95;34.79
75536;BME280;64119;52.070;20.804;2023-04-24T10:08:39;99291.63;;;25.39;35.27
75536;BME280;64119;52.070;20.804;2023-04-24T10:11:07;99291.05;;;24.80;35.62
75536;BME280;64119;52.070;20.804;2023-04-24T10:13:35;99290.14;;;24.46;36.02
75536;BME280;64119;52.070;20.804;2023-04-24T10:16:03;99287.23;;;24.08;36.40
75536;BME280;64119;52.070;20.804;2023-04-24T10:18:32;99289.64;;;23.67;36.76
75536;BME280;64119;52.070;20.804;2023-04-24T10:21:00;99284.95;;;23.46;37.77
75536;BME280;64119;52.070;20.804;2023-04-24T10:23:29;99285.14;;;23.21;37.45
75536;BME280;64119;52.070;20.804;2023-04-24T10:25:57;99284.20;;;23.07;37.74
75536;BME280;64119;52.070;20.804;2023-04-24T10:28:27;99281.35;;;22.93;37.37
75536;BME280;64119;52.070;20.804;2023-04-24T10:30:56;99279.86;;;22.77;36.82
75536;BME280;64119;52.070;20.804;2023-04-24T10:33:25;99279.91;;;22.71;37.49
75536;BME280;64119;52.070;20.804;2023-04-24T10:35:54;99276.77;;;23.15;36.85
75536;BME280;64119;52.070;20.804;2023-04-24T10:38:25;99270.90;;;23.92;36.21
75536;BME280;64119;52.070;20.804;2023-04-24T10:41:06;99268.18;;;24.63;34.88
75536;BME280;64119;52.070;20.804;2023-04-24T10:43:36;99266.31;;;25.31;33.94
75536;BME280;64119;52.070;20.804;2023-04-24T10:46:05;99263.86;;;25.79;32.76
75536;BME280;64119;52.070;20.804;2023-04-24T10:48:34;99263.44;;;26.32;33.50
75536;BME280;64119;52.070;20.804;2023-04-24T10:51:02;99259.62;;;26.93;30.18
75536;BME280;64119;52.070;20.804;2023-04-24T10:53:30;99254.75;;;27.42;29.32
75536;BME280;64119;52.070;20.804;2023-04-24T10:58:51;99250.20;;;27.97;28.99
75536;BME280;64119;52.070;20.804;2023-04-24T11:01:28;99247.44;;;28.42;30.09
75536;BME280;64119;52.070;20.804;2023-04-24T11:04:02;99244.45;;;28.92;29.10
75536;BME280;64119;52.070;20.804;2023-04-24T11:06:33;99241.30;;;29.20;28.46
75536;BME280;64119;52.070;20.804;2023-04-24T11:09:07;99246.44;;;29.13;27.97
75536;BME280;64119;52.070;20.804;2023-04-24T11:11:36;99241.38;;;29.13;27.64
75536;BME280;64119;52.070;20.804;2023-04-24T11:14:06;99236.30;;;29.06;28.07
75536;BME280;64119;52.070;20.804;2023-04-24T11:16:45;99236.19;;;29.29;28.09
75536;BME280;64119;52.070;20.804;2023-04-24T11:19:23;99232.80;;;29.30;27.28
75536;BME280;64119;52.070;20.804;2023-04-24T11:27:11;99224.73;;;28.97;27.41
75536;BME280;64119;52.070;20.804;2023-04-24T11:32:41;99222.83;;;29.09;26.75
75536;BME280;64119;52.070;20.804;2023-04-24T11:35:22;99224.33;;;29.14;26.46
75536;BME280;64119;52.070;20.804;2023-04-24T11:37:53;99220.30;;;29.08;26.25
75536;BME280;64119;52.070;20.804;2023-04-24T11:40:24;99218.82;;;29.06;26.42
75536;BME280;64119;52.070;20.804;2023-04-24T11:42:54;99215.87;;;29.18;26.13
75536;BME280;64119;52.070;20.804;2023-04-24T11:45:27;99214.77;;;29.24;25.58
75536;BME280;64119;52.070;20.804;2023-04-24T11:47:56;99221.20;;;28.98;25.78
75536;BME280;64119;52.070;20.804;2023-04-24T11:50:26;99221.34;;;28.59;26.49
75536;BME280;64119;52.070;20.804;2023-04-24T11:52:56;99220.27;;;28.49;26.33
75536;BME280;64119;52.070;20.804;2023-04-24T11:55:28;99217.52;;;28.28;25.32
75536;BME280;64119;52.070;20.804;2023-04-24T11:57:58;99221.08;;;27.88;25.59
75536;BME280;64119;52.070;20.804;2023-04-24T12:00:30;99212.44;;;27.46;26.63
75536;BME280;64119;52.070;20.804;2023-04-24T12:03:11;99203.98;;;27.23;27.07
75536;BME280;64119;52.070;20.804;2023-04-24T12:05:40;99198.13;;;27.28;26.94
75536;BME280;64119;52.070;20.804;2023-04-24T12:08:08;99197.66;;;26.79;27.00
75536;BME280;64119;52.070;20.804;2023-04-24T12:10:37;99203.73;;;26.41;27.59
75536;BME280;64119;52.070;20.804;2023-04-24T12:13:05;99208.21;;;25.91;28.26
75536;BME280;64119;52.070;20.804;2023-04-24T12:15:33;99205.94;;;25.64;29.12
75536;BME280;64119;52.070;20.804;2023-04-24T12:18:01;99212.70;;;25.58;29.71
75536;BME280;64119;52.070;20.804;2023-04-24T12:20:31;99218.18;;;25.66;29.94
75536;BME280;64119;52.070;20.804;2023-04-24T12:23:00;99231.12;;;25.49;29.61
75536;BME280;64119;52.070;20.804;2023-04-24T12:25:31;99242.58;;;25.12;29.46
75536;BME280;64119;52.070;20.804;2023-04-24T12:30:35;99256.58;;;24.22;30.48
75536;BME280;64119;52.070;20.804;2023-04-24T12:33:05;99241.17;;;23.64;31.38
75536;BME280;64119;52.070;20.804;2023-04-24T12:35:34;99233.98;;;23.10;31.93
75536;BME280;64119;52.070;20.804;2023-04-24T12:40:35;99279.20;;;22.44;33.95
75536;BME280;64119;52.070;20.804;2023-04-24T12:43:19;99263.24;;;21.95;34.77
75536;BME280;64119;52.070;20.804;2023-04-24T12:45:48;99253.34;;;21.56;35.67
75536;BME280;64119;52.070;20.804;2023-04-24T12:48:15;99258.91;;;21.32;35.97
75536;BME280;64119;52.070;20.804;2023-04-24T12:50:44;99268.23;;;21.04;36.63
75536;BME280;64119;52.070;20.804;2023-04-24T12:53:14;99254.97;;;20.75;37.83
75536;BME280;64119;52.070;20.804;2023-04-24T12:55:43;99250.98;;;20.68;38.12
75536;BME280;64119;52.070;20.804;2023-04-24T12:58:12;99251.05;;;20.57;37.89
75536;BME280;64119;52.070;20.804;2023-04-24T13:00:40;99253.18;;;20.52;37.99
75536;BME280;64119;52.070;20.804;2023-04-24T13:03:11;99260.21;;;20.65;37.98
75536;BME280;64119;52.070;20.804;2023-04-24T13:05:40;99258.92;;;20.55;37.98
75536;BME280;64119;52.070;20.804;2023-04-24T13:08:08;99257.09;;;20.48;37.67
75536;BME280;64119;52.070;20.804;2023-04-24T13:10:36;99261.45;;;20.30;37.66
75536;BME280;64119;52.070;20.804;2023-04-24T13:13:04;99266.10;;;20.13;37.91
75536;BME280;64119;52.070;20.804;2023-04-24T13:15:32;99255.95;;;20.19;37.99
75536;BME280;64119;52.070;20.804;2023-04-24T13:18:00;99239.26;;;20.19;37.81
75536;BME280;64119;52.070;20.804;2023-04-24T13:20:28;99230.44;;;20.15;38.01